sensor_id;sensor_type;location;lat;lon;timestamp;temperature;humidity
431;DHT22;202;48.764;9.172;2023-04-24T00:49:09;13.70;54.10
431;DHT22;202;48.764;9.172;2023-04-24T00:55:39;13.70;53.40
431;DHT22;202;48.764;9.172;2023-04-24T00:58:16;13.80;53.60
431;DHT22;202;48.764;9.172;2023-04-24T01:00:53;13.70;53.70
431;DHT22;202;48.764;9.172;2023-04-24T01:03:23;13.80;53.30
431;DHT22;202;48.764;9.172;2023-04-24T01:05:56;13.70;53.00
431;DHT22;202;48.764;9.172;2023-04-24T01:08:24;13.80;53.10
431;DHT22;202;48.764;9.172;2023-04-24T01:10:53;13.90;52.40
431;DHT22;202;48.764;9.172;2023-04-24T01:13:20;13.90;52.70
431;DHT22;202;48.764;9.172;2023-04-24T01:15:47;13.80;53.30
431;DHT22;202;48.764;9.172;2023-04-24T01:18:15;13.80;53.40
431;DHT22;202;48.764;9.172;2023-04-24T01:20:43;13.80;53.00
431;DHT22;202;48.764;9.172;2023-04-24T01:23:13;13.80;53.30
431;DHT22;202;48.764;9.172;2023-04-24T01:25:41;13.80;53.80
431;DHT22;202;48.764;9.172;2023-04-24T01:28:11;13.80;52.90
431;DHT22;202;48.764;9.172;2023-04-24T01:30:39;13.80;54.10
431;DHT22;202;48.764;9.172;2023-04-24T01:33:06;13.90;55.50
431;DHT22;202;48.764;9.172;2023-04-24T01:35:33;13.90;55.90
431;DHT22;202;48.764;9.172;2023-04-24T01:38:01;13.90;55.90
431;DHT22;202;48.764;9.172;2023-04-24T01:40:30;13.90;56.80
431;DHT22;202;48.764;9.172;2023-04-24T01:42:57;13.90;56.20
431;DHT22;202;48.764;9.172;2023-04-24T01:45:24;14.00;55.80
431;DHT22;202;48.764;9.172;2023-04-24T01:47:51;14.00;55.90
431;DHT22;202;48.764;9.172;2023-04-24T01:50:18;14.00;56.20
431;DHT22;202;48.764;9.172;2023-04-24T01:52:45;14.00;56.10
431;DHT22;202;48.764;9.172;2023-04-24T01:55:12;14.00;56.30
431;DHT22;202;48.764;9.172;2023-04-24T01:57:40;14.00;55.10
431;DHT22;202;48.764;9.172;2023-04-24T02:00:08;14.00;54.70
431;DHT22;202;48.764;9.172;2023-04-24T02:02:37;14.00;56.40
431;DHT22;202;48.764;9.172;2023-04-24T02:05:06;13.90;55.60
431;DHT22;202;48.764;9.172;2023-04-24T02:07:33;13.90;55.90
431;DHT22;202;48.764;9.172;2023-04-24T02:10:00;14.00;55.20
431;DHT22;202;48.764;9.172;2023-04-24T02:12:27;13.90;56.10
431;DHT22;202;48.764;9.172;2023-04-24T02:14:56;13.90;55.60
431;DHT22;202;48.764;9.172;2023-04-24T02:17:22;13.90;56.00
431;DHT22;202;48.764;9.172;2023-04-24T02:19:50;13.80;56.20
431;DHT22;202;48.764;9.172;2023-04-24T02:22:17;13.70;56.60
431;DHT22;202;48.764;9.172;2023-04-24T02:24:44;13.60;56.50
431;DHT22;202;48.764;9.172;2023-04-24T02:27:11;13.60;57.40
431;DHT22;202;48.764;9.172;2023-04-24T02:29:38;13.60;57.80
431;DHT22;202;48.764;9.172;2023-04-24T02:32:06;13.50;57.20
431;DHT22;202;48.764;9.172;2023-04-24T02:34:36;13.50;58.00
431;DHT22;202;48.764;9.172;2023-04-24T02:37:03;13.50;57.90
431;DHT22;202;48.764;9.172;2023-04-24T02:39:30;13.50;57.80
431;DHT22;202;48.764;9.172;2023-04-24T02:41:57;13.50;58.00
431;DHT22;202;48.764;9.172;2023-04-24T02:44:25;13.50;58.00
431;DHT22;202;48.764;9.172;2023-04-24T02:46:52;13.50;58.60
431;DHT22;202;48.764;9.172;2023-04-24T02:49:21;13.50;59.20
431;DHT22;202;48.764;9.172;2023-04-24T02:51:48;13.60;59.70
431;DHT22;202;48.764;9.172;2023-04-24T02:54:15;13.60;59.60
431;DHT22;202;48.764;9.172;2023-04-24T02:56:42;13.70;60.00
431;DHT22;202;48.764;9.172;2023-04-24T02:59:09;13.60;60.00
431;DHT22;202;48.764;9.172;2023-04-24T03:01:36;13.60;61.20
431;DHT22;202;48.764;9.172;2023-04-24T03:04:03;13.60;61.20
431;DHT22;202;48.764;9.172;2023-04-24T03:06:31;13.50;61.20
431;DHT22;202;48.764;9.172;2023-04-24T03:09:01;13.50;61.20
431;DHT22;202;48.764;9.172;2023-04-24T03:11:28;13.40;62.50
431;DHT22;202;48.764;9.172;2023-04-24T03:13:55;13.20;64.00
431;DHT22;202;48.764;9.172;2023-04-24T03:16:22;13.10;65.80
431;DHT22;202;48.764;9.172;2023-04-24T03:18:49;13.10;66.50
431;DHT22;202;48.764;9.172;2023-04-24T03:21:16;13.20;65.60
431;DHT22;202;48.764;9.172;2023-04-24T03:23:45;13.30;65.90
431;DHT22;202;48.764;9.172;2023-04-24T03:26:12;13.30;65.90
431;DHT22;202;48.764;9.172;2023-04-24T03:28:39;13.20;65.80
431;DHT22;202;48.764;9.172;2023-04-24T03:31:06;13.20;65.00
431;DHT22;202;48.764;9.172;2023-04-24T03:33:33;13.30;65.00
431;DHT22;202;48.764;9.172;2023-04-24T03:36:01;13.30;65.90
431;DHT22;202;48.764;9.172;2023-04-24T03:38:28;13.40;63.40
431;DHT22;202;48.764;9.172;2023-04-24T03:40:56;13.40;63.00
431;DHT22;202;48.764;9.172;2023-04-24T03:43:23;13.40;62.80
431;DHT22;202;48.764;9.172;2023-04-24T03:45:50;13.30;63.90
431;DHT22;202;48.764;9.172;2023-04-24T03:48:17;13.30;63.60
431;DHT22;202;48.764;9.172;2023-04-24T03:50:44;13.30;63.00
431;DHT22;202;48.764;9.172;2023-04-24T03:53:11;13.30;63.10
431;DHT22;202;48.764;9.172;2023-04-24T03:55:38;13.30;63.90
431;DHT22;202;48.764;9.172;2023-04-24T03:58:06;13.20;64.00
431;DHT22;202;48.764;9.172;2023-04-24T04:00:33;13.10;64.00
431;DHT22;202;48.764;9.172;2023-04-24T04:03:00;13.00;63.90
431;DHT22;202;48.764;9.172;2023-04-24T04:05:27;13.00;65.60
431;DHT22;202;48.764;9.172;2023-04-24T04:07:54;13.00;65.60
431;DHT22;202;48.764;9.172;2023-04-24T04:10:21;12.90;65.50
431;DHT22;202;48.764;9.172;2023-04-24T04:12:48;13.00;65.60
431;DHT22;202;48.764;9.172;2023-04-24T04:15:16;13.00;65.30
431;DHT22;202;48.764;9.172;2023-04-24T04:17:43;13.00;64.70
431;DHT22;202;48.764;9.172;2023-04-24T04:20:11;12.90;63.90
431;DHT22;202;48.764;9.172;2023-04-24T04:22:38;12.90;65.50
431;DHT22;202;48.764;9.172;2023-04-24T04:25:05;12.90;65.50
431;DHT22;202;48.764;9.172;2023-04-24T04:27:33;12.80;65.80
431;DHT22;202;48.764;9.172;2023-04-24T04:30:00;12.80;66.20
431;DHT22;202;48.764;9.172;2023-04-24T04:32:31;12.70;69.30
431;DHT22;202;48.764;9.172;2023-04-24T04:34:58;12.80;70.30
431;DHT22;202;48.764;9.172;2023-04-24T04:37:28;12.80;69.10
431;DHT22;202;48.764;9.172;2023-04-24T04:39:55;12.80;67.70
431;DHT22;202;48.764;9.172;2023-04-24T04:42:23;12.80;65.80
431;DHT22;202;48.764;9.172;2023-04-24T04:44:50;12.80;60.50
431;DHT22;202;48.764;9.172;2023-04-24T04:47:17;12.80;61.00
431;DHT22;202;48.764;9.172;2023-04-24T04:49:45;12.80;60.50
431;DHT22;202;48.764;9.172;2023-04-24T04:52:13;12.80;61.10
431;DHT22;202;48.764;9.172;2023-04-24T04:54:42;12.80;60.10
431;DHT22;202;48.764;9.172;2023-04-24T04:57:09;12.70;60.40
431;DHT22;202;48.764;9.172;2023-04-24T04:59:37;12.70;60.80
431;DHT22;202;48.764;9.172;2023-04-24T05:02:04;12.70;59.70
431;DHT22;202;48.764;9.172;2023-04-24T05:04:31;12.70;59.20
431;DHT22;202;48.764;9.172;2023-04-24T05:06:59;12.70;59.60
431;DHT22;202;48.764;9.172;2023-04-24T05:09:26;12.70;59.40
431;DHT22;202;48.764;9.172;2023-04-24T05:11:55;12.70;60.40
431;DHT22;202;48.764;9.172;2023-04-24T05:14:22;12.80;59.80
431;DHT22;202;48.764;9.172;2023-04-24T05:16:57;12.70;58.80
431;DHT22;202;48.764;9.172;2023-04-24T05:19:25;12.70;58.60
431;DHT22;202;48.764;9.172;2023-04-24T05:21:52;12.80;58.60
431;DHT22;202;48.764;9.172;2023-04-24T05:24:21;12.70;58.00
431;DHT22;202;48.764;9.172;2023-04-24T05:26:47;12.70;58.50
431;DHT22;202;48.764;9.172;2023-04-24T05:29:14;12.70;58.30
431;DHT22;202;48.764;9.172;2023-04-24T05:31:44;12.70;58.70
431;DHT22;202;48.764;9.172;2023-04-24T05:34:11;12.70;58.10
431;DHT22;202;48.764;9.172;2023-04-24T05:36:39;12.70;57.80
431;DHT22;202;48.764;9.172;2023-04-24T05:39:06;12.70;58.30
431;DHT22;202;48.764;9.172;2023-04-24T05:41:35;12.40;58.90
431;DHT22;202;48.764;9.172;2023-04-24T05:44:02;12.40;59.70
431;DHT22;202;48.764;9.172;2023-04-24T05:46:28;12.40;59.10
431;DHT22;202;48.764;9.172;2023-04-24T05:48:55;12.50;60.00
431;DHT22;202;48.764;9.172;2023-04-24T05:51:22;12.50;60.20
431;DHT22;202;48.764;9.172;2023-04-24T05:53:49;12.60;60.30
431;DHT22;202;48.764;9.172;2023-04-24T05:56:16;12.70;59.60
431;DHT22;202;48.764;9.172;2023-04-24T05:58:45;12.70;59.50
431;DHT22;202;48.764;9.172;2023-04-24T06:01:12;12.70;59.40
431;DHT22;202;48.764;9.172;2023-04-24T06:03:40;12.70;58.60
431;DHT22;202;48.764;9.172;2023-04-24T06:06:07;12.50;58.00
431;DHT22;202;48.764;9.172;2023-04-24T06:08:34;12.40;60.00
431;DHT22;202;48.764;9.172;2023-04-24T06:11:01;12.40;59.80
431;DHT22;202;48.764;9.172;2023-04-24T06:13:28;12.50;59.60
431;DHT22;202;48.764;9.172;2023-04-24T06:15:57;12.50;60.20
431;DHT22;202;48.764;9.172;2023-04-24T06:18:24;12.50;58.40
431;DHT22;202;48.764;9.172;2023-04-24T06:20:51;12.50;58.70
431;DHT22;202;48.764;9.172;2023-04-24T06:23:18;12.60;58.50
431;DHT22;202;48.764;9.172;2023-04-24T06:25:44;12.60;58.40
431;DHT22;202;48.764;9.172;2023-04-24T06:28:11;12.80;57.90
431;DHT22;202;48.764;9.172;2023-04-24T06:30:38;12.90;57.60
431;DHT22;202;48.764;9.172;2023-04-24T06:33:08;13.00;56.00
431;DHT22;202;48.764;9.172;2023-04-24T06:35:35;13.10;56.00
431;DHT22;202;48.764;9.172;2023-04-24T06:38:03;13.20;55.60
431;DHT22;202;48.764;9.172;2023-04-24T06:40:35;13.20;55.50
431;DHT22;202;48.764;9.172;2023-04-24T06:50:11;13.80;51.60
431;DHT22;202;48.764;9.172;2023-04-24T06:52:47;13.70;50.70
431;DHT22;202;48.764;9.172;2023-04-24T06:55:14;13.80;50.10
431;DHT22;202;48.764;9.172;2023-04-24T06:58:10;13.80;48.90
431;DHT22;202;48.764;9.172;2023-04-24T07:01:03;13.90;48.20
431;DHT22;202;48.764;9.172;2023-04-24T07:03:45;14.10;47.90
431;DHT22;202;48.764;9.172;2023-04-24T07:06:24;14.00;47.20
431;DHT22;202;48.764;9.172;2023-04-24T07:08:56;14.20;47.40
431;DHT22;202;48.764;9.172;2023-04-24T07:11:36;14.40;47.60
431;DHT22;202;48.764;9.172;2023-04-24T07:18:20;14.20;44.80
431;DHT22;202;48.764;9.172;2023-04-24T07:24:13;14.00;45.50
431;DHT22;202;48.764;9.172;2023-04-24T07:26:43;13.90;45.10
431;DHT22;202;48.764;9.172;2023-04-24T07:29:37;13.90;46.60
431;DHT22;202;48.764;9.172;2023-04-24T07:32:27;13.90;43.10
431;DHT22;202;48.764;9.172;2023-04-24T07:41:57;15.40;41.00
431;DHT22;202;48.764;9.172;2023-04-24T07:44:24;16.90;37.20
431;DHT22;202;48.764;9.172;2023-04-24T07:47:21;17.40;31.70
431;DHT22;202;48.764;9.172;2023-04-24T07:49:58;17.50;30.70
431;DHT22;202;48.764;9.172;2023-04-24T07:52:26;17.80;30.40
431;DHT22;202;48.764;9.172;2023-04-24T07:55:02;17.90;30.50
431;DHT22;202;48.764;9.172;2023-04-24T07:57:45;17.30;30.00
431;DHT22;202;48.764;9.172;2023-04-24T08:00:22;16.90;30.30
431;DHT22;202;48.764;9.172;2023-04-24T08:02:49;17.00;29.90
431;DHT22;202;48.764;9.172;2023-04-24T08:05:16;17.00;29.90
431;DHT22;202;48.764;9.172;2023-04-24T08:07:44;16.70;29.70
431;DHT22;202;48.764;9.172;2023-04-24T08:10:14;16.30;29.40
431;DHT22;202;48.764;9.172;2023-04-24T08:12:42;15.90;29.90
431;DHT22;202;48.764;9.172;2023-04-24T08:15:10;15.70;30.90
431;DHT22;202;48.764;9.172;2023-04-24T08:17:37;15.80;31.60
431;DHT22;202;48.764;9.172;2023-04-24T08:20:05;16.00;31.40
431;DHT22;202;48.764;9.172;2023-04-24T08:22:35;16.20;31.20
431;DHT22;202;48.764;9.172;2023-04-24T08:25:03;16.20;30.20
431;DHT22;202;48.764;9.172;2023-04-24T08:27:39;16.50;30.00
431;DHT22;202;48.764;9.172;2023-04-24T08:30:08;16.70;30.40
431;DHT22;202;48.764;9.172;2023-04-24T08:32:36;16.60;29.60
431;DHT22;202;48.764;9.172;2023-04-24T08:35:04;16.60;29.60
431;DHT22;202;48.764;9.172;2023-04-24T08:37:31;16.70;29.00
431;DHT22;202;48.764;9.172;2023-04-24T08:40:02;16.50;29.50
431;DHT22;202;48.764;9.172;2023-04-24T08:45:27;16.00;30.00
431;DHT22;202;48.764;9.172;2023-04-24T08:47:54;15.50;30.80
431;DHT22;202;48.764;9.172;2023-04-24T08:51:40;15.20;32.10
431;DHT22;202;48.764;9.172;2023-04-24T11:17:36;14.60;29.70
431;DHT22;202;48.764;9.172;2023-04-24T11:20:23;14.60;29.40
431;DHT22;202;48.764;9.172;2023-04-24T11:22:53;14.60;30.00
431;DHT22;202;48.764;9.172;2023-04-24T11:26:13;14.60;28.90
431;DHT22;202;48.764;9.172;2023-04-24T11:28:50;14.50;29.70
431;DHT22;202;48.764;9.172;2023-04-24T11:31:43;14.50;29.50
431;DHT22;202;48.764;9.172;2023-04-24T11:34:16;14.80;29.20
431;DHT22;202;48.764;9.172;2023-04-24T11:36:46;15.00;28.50
431;DHT22;202;48.764;9.172;2023-04-24T11:39:27;15.30;28.70
431;DHT22;202;48.764;9.172;2023-04-24T11:42:02;15.50;28.60
431;DHT22;202;48.764;9.172;2023-04-24T11:44:31;15.40;28.80
431;DHT22;202;48.764;9.172;2023-04-24T11:47:08;15.50;28.80
431;DHT22;202;48.764;9.172;2023-04-24T11:50:04;15.30;28.70
431;DHT22;202;48.764;9.172;2023-04-24T11:52:40;14.90;28.40
431;DHT22;202;48.764;9.172;2023-04-24T11:55:23;14.80;29.20
431;DHT22;202;48.764;9.172;2023-04-24T11:57:53;14.70;30.40
431;DHT22;202;48.764;9.172;2023-04-24T12:00:28;14.50;32.60
431;DHT22;202;48.764;9.172;2023-04-24T12:03:06;14.50;32.60
431;DHT22;202;48.764;9.172;2023-04-24T12:05:35;14.70;32.30
431;DHT22;202;48.764;9.172;2023-04-24T12:08:05;14.70;29.90
431;DHT22;202;48.764;9.172;2023-04-24T12:10:33;14.70;29.80
431;DHT22;202;48.764;9.172;2023-04-24T12:13:03;14.70;29.80
431;DHT22;202;48.764;9.172;2023-04-24T12:15:30;14.80;30.00
431;DHT22;202;48.764;9.172;2023-04-24T12:17:58;14.80;29.20
431;DHT22;202;48.764;9.172;2023-04-24T12:20:28;14.80;29.70
431;DHT22;202;48.764;9.172;2023-04-24T12:23:00;14.70;29.60
431;DHT22;202;48.764;9.172;2023-04-24T12:25:30;14.60;29.30
431;DHT22;202;48.764;9.172;2023-04-24T12:28:09;14.50;29.90
431;DHT22;202;48.764;9.172;2023-04-24T12:30:40;14.40;29.90
431;DHT22;202;48.764;9.172;2023-04-24T12:33:11;14.40;29.50
431;DHT22;202;48.764;9.172;2023-04-24T12:35:40;14.40;29.00
431;DHT22;202;48.764;9.172;2023-04-24T12:38:11;14.40;29.10
431;DHT22;202;48.764;9.172;2023-04-24T12:40:39;14.50;30.00
431;DHT22;202;48.764;9.172;2023-04-24T12:43:14;14.60;29.10
431;DHT22;202;48.764;9.172;2023-04-24T12:45:42;14.80;28.40
431;DHT22;202;48.764;9.172;2023-04-24T12:48:10;14.80;28.40
431;DHT22;202;48.764;9.172;2023-04-24T12:50:39;14.80;28.90
431;DHT22;202;48.764;9.172;2023-04-24T12:53:08;14.80;28.40
431;DHT22;202;48.764;9.172;2023-04-24T12:55:37;14.70;28.30
431;DHT22;202;48.764;9.172;2023-04-24T12:58:04;14.70;28.70
431;DHT22;202;48.764;9.172;2023-04-24T13:00:32;14.60;29.10
431;DHT22;202;48.764;9.172;2023-04-24T13:02:59;14.40;30.50
431;DHT22;202;48.764;9.172;2023-04-24T13:05:26;14.40;30.70
431;DHT22;202;48.764;9.172;2023-04-24T13:07:54;14.30;31.70
431;DHT22;202;48.764;9.172;2023-04-24T13:10:23;14.30;34.80
431;DHT22;202;48.764;9.172;2023-04-24T13:12:50;14.30;36.80
431;DHT22;202;48.764;9.172;2023-04-24T13:15:17;14.20;37.80
431;DHT22;202;48.764;9.172;2023-04-24T13:17:44;14.30;37.60
431;DHT22;202;48.764;9.172;2023-04-24T13:20:12;14.30;37.60
431;DHT22;202;48.764;9.172;2023-04-24T13:22:39;14.30;38.70
431;DHT22;202;48.764;9.172;2023-04-24T13:25:06;14.40;37.70
431;DHT22;202;48.764;9.172;2023-04-24T13:27:38;14.30;37.60
431;DHT22;202;48.764;9.172;2023-04-24T13:30:10;14.40;39.20
431;DHT22;202;48.764;9.172;2023-04-24T13:32:37;14.40;38.00
431;DHT22;202;48.764;9.172;2023-04-24T13:35:18;14.40;37.70
431;DHT22;202;48.764;9.172;2023-04-24T13:37:45;14.30;36.90
431;DHT22;202;48.764;9.172;2023-04-24T13:40:12;14.20;37.30
431;DHT22;202;48.764;9.172;2023-04-24T13:42:41;14.20;37.50
431;DHT22;202;48.764;9.172;2023-04-24T13:45:09;14.20;36.50
431;DHT22;202;48.764;9.172;2023-04-24T13:47:36;14.20;36.90
431;DHT22;202;48.764;9.172;2023-04-24T13:50:07;14.20;38.60
431;DHT22;202;48.764;9.172;2023-04-24T13:52:34;13.90;39.20
431;DHT22;202;48.764;9.172;2023-04-24T13:55:01;13.80;40.50
431;DHT22;202;48.764;9.172;2023-04-24T13:57:28;13.50;42.60
431;DHT22;202;48.764;9.172;2023-04-24T13:59:58;13.20;45.40
431;DHT22;202;48.764;9.172;2023-04-24T14:02:29;13.10;46.40
431;DHT22;202;48.764;9.172;2023-04-24T14:04:56;13.20;48.20
431;DHT22;202;48.764;9.172;2023-04-24T14:07:26;13.20;48.30
431;DHT22;202;48.764;9.172;2023-04-24T14:09:54;13.20;44.70
431;DHT22;202;48.764;9.172;2023-04-24T14:12:22;13.30;47.40
431;DHT22;202;48.764;9.172;2023-04-24T14:14:49;13.30;47.20
431;DHT22;202;48.764;9.172;2023-04-24T14:17:17;13.40;45.10
431;DHT22;202;48.764;9.172;2023-04-24T14:19:44;13.50;45.00
431;DHT22;202;48.764;9.172;2023-04-24T14:22:11;13.40;44.80
431;DHT22;202;48.764;9.172;2023-04-24T14:24:38;13.40;45.90
431;DHT22;202;48.764;9.172;2023-04-24T14:27:05;13.40;46.70
431;DHT22;202;48.764;9.172;2023-04-24T14:29:32;13.40;45.30
431;DHT22;202;48.764;9.172;2023-04-24T14:31:59;13.40;43.80
431;DHT22;202;48.764;9.172;2023-04-24T14:34:27;13.50;45.40
431;DHT22;202;48.764;9.172;2023-04-24T14:36:54;13.30;41.70
431;DHT22;202;48.764;9.172;2023-04-24T14:39:21;13.40;40.90
431;DHT22;202;48.764;9.172;2023-04-24T14:41:48;13.40;40.70
431;DHT22;202;48.764;9.172;2023-04-24T14:44:15;13.50;41.80
431;DHT22;202;48.764;9.172;2023-04-24T14:46:42;13.50;40.60
431;DHT22;202;48.764;9.172;2023-04-24T14:49:11;13.50;41.50
431;DHT22;202;48.764;9.172;2023-04-24T14:51:48;13.50;41.00
431;DHT22;202;48.764;9.172;2023-04-24T14:54:19;13.50;39.90
431;DHT22;202;48.764;9.172;2023-04-24T14:56:48;13.60;41.60
431;DHT22;202;48.764;9.172;2023-04-24T14:59:16;13.80;40.70
431;DHT22;202;48.764;9.172;2023-04-24T15:01:43;13.90;40.20
431;DHT22;202;48.764;9.172;2023-04-24T15:04:10;13.90;38.80
431;DHT22;202;48.764;9.172;2023-04-24T15:06:37;13.80;38.30
431;DHT22;202;48.764;9.172;2023-04-24T15:09:06;13.70;37.70
431;DHT22;202;48.764;9.172;2023-04-24T15:11:33;13.60;37.60
431;DHT22;202;48.764;9.172;2023-04-24T15:14:00;13.70;37.20
431;DHT22;202;48.764;9.172;2023-04-24T15:16:27;13.80;37.50
431;DHT22;202;48.764;9.172;2023-04-24T15:18:54;13.80;36.30
431;DHT22;202;48.764;9.172;2023-04-24T15:21:22;13.80;37.10
431;DHT22;202;48.764;9.172;2023-04-24T15:23:49;13.90;36.60
431;DHT22;202;48.764;9.172;2023-04-24T15:26:19;13.80;37.10
431;DHT22;202;48.764;9.172;2023-04-24T15:30:56;13.80;37.10
431;DHT22;202;48.764;9.172;2023-04-24T15:34:32;13.70;37.00
431;DHT22;202;48.764;9.172;2023-04-24T16:21:11;13.10;48.00
431;DHT22;202;48.764;9.172;2023-04-24T16:23:38;13.10;48.10
431;DHT22;202;48.764;9.172;2023-04-24T16:26:05;13.20;47.30
431;DHT22;202;48.764;9.172;2023-04-24T16:28:32;13.30;47.20
431;DHT22;202;48.764;9.172;2023-04-24T16:30:59;13.30;46.60
431;DHT22;202;48.764;9.172;2023-04-24T17:31:33;13.90;37.20
431;DHT22;202;48.764;9.172;2023-04-24T17:33:59;13.80;39.30
431;DHT22;202;48.764;9.172;2023-04-24T17:36:27;13.90;37.20
431;DHT22;202;48.764;9.172;2023-04-24T17:38:54;13.90;37.20
431;DHT22;202;48.764;9.172;2023-04-24T17:41:21;13.80;35.80
431;DHT22;202;48.764;9.172;2023-04-24T17:43:48;13.90;35.60
431;DHT22;202;48.764;9.172;2023-04-24T17:46:14;13.80;34.60
431;DHT22;202;48.764;9.172;2023-04-24T17:48:43;13.90;35.40
431;DHT22;202;48.764;9.172;2023-04-24T17:51:09;13.90;35.50
431;DHT22;202;48.764;9.172;2023-04-24T17:53:36;13.80;37.10
431;DHT22;202;48.764;9.172;2023-04-24T17:56:04;13.90;37.20
431;DHT22;202;48.764;9.172;2023-04-24T17:58:31;13.90;35.10
431;DHT22;202;48.764;9.172;2023-04-24T18:00:59;13.90;35.70
431;DHT22;202;48.764;9.172;2023-04-24T18:03:26;13.90;35.20
431;DHT22;202;48.764;9.172;2023-04-24T18:05:54;13.70;37.00
431;DHT22;202;48.764;9.172;2023-04-24T18:08:21;13.70;37.00
431;DHT22;202;48.764;9.172;2023-04-24T18:10:48;13.80;37.10
431;DHT22;202;48.764;9.172;2023-04-24T18:13:15;13.80;36.20
431;DHT22;202;48.764;9.172;2023-04-24T18:15:42;13.90;36.30
431;DHT22;202;48.764;9.172;2023-04-24T18:18:09;13.90;34.70
431;DHT22;202;48.764;9.172;2023-04-24T18:20:36;13.90;35.20
431;DHT22;202;48.764;9.172;2023-04-24T18:23:05;13.90;35.10
431;DHT22;202;48.764;9.172;2023-04-24T18:25:37;13.90;35.70
431;DHT22;202;48.764;9.172;2023-04-24T18:28:04;13.80;38.20
431;DHT22;202;48.764;9.172;2023-04-24T18:30:31;13.80;37.10
431;DHT22;202;48.764;9.172;2023-04-24T18:32:59;13.80;37.80
431;DHT22;202;48.764;9.172;2023-04-24T18:35:26;13.80;37.10
431;DHT22;202;48.764;9.172;2023-04-24T18:37:53;13.80;35.10
431;DHT22;202;48.764;9.172;2023-04-24T18:40:21;13.70;35.60
431;DHT22;202;48.764;9.172;2023-04-24T18:42:48;13.70;37.00
431;DHT22;202;48.764;9.172;2023-04-24T18:45:15;13.70;37.40
431;DHT22;202;48.764;9.172;2023-04-24T18:47:42;13.60;39.20
431;DHT22;202;48.764;9.172;2023-04-24T18:50:10;13.50;38.20
431;DHT22;202;48.764;9.172;2023-04-24T18:52:39;13.50;37.50
431;DHT22;202;48.764;9.172;2023-04-24T18:55:06;13.50;37.10
431;DHT22;202;48.764;9.172;2023-04-24T18:57:35;13.50;39.40
431;DHT22;202;48.764;9.172;2023-04-24T19:00:03;13.40;40.10
431;DHT22;202;48.764;9.172;2023-04-24T19:02:31;13.30;41.40
431;DHT22;202;48.764;9.172;2023-04-24T19:04:58;13.30;40.20
431;DHT22;202;48.764;9.172;2023-04-24T19:07:25;13.30;40.00
431;DHT22;202;48.764;9.172;2023-04-24T19:09:53;13.20;40.20
431;DHT22;202;48.764;9.172;2023-04-24T19:12:20;13.20;39.50
431;DHT22;202;48.764;9.172;2023-04-24T19:14:49;13.20;39.70
431;DHT22;202;48.764;9.172;2023-04-24T19:17:20;13.20;41.00
431;DHT22;202;48.764;9.172;2023-04-24T19:19:49;13.00;41.00
431;DHT22;202;48.764;9.172;2023-04-24T19:22:17;13.00;41.70
431;DHT22;202;48.764;9.172;2023-04-24T19:24:45;13.00;41.90
431;DHT22;202;48.764;9.172;2023-04-24T19:27:12;12.80;42.30
431;DHT22;202;48.764;9.172;2023-04-24T19:29:40;12.70;41.70
431;DHT22;202;48.764;9.172;2023-04-24T19:32:08;12.80;41.80
431;DHT22;202;48.764;9.172;2023-04-24T19:34:35;12.80;42.40
431;DHT22;202;48.764;9.172;2023-04-24T19:37:02;12.70;42.10
431;DHT22;202;48.764;9.172;2023-04-24T19:39:29;12.60;41.90
431;DHT22;202;48.764;9.172;2023-04-24T19:41:57;12.50;41.80
431;DHT22;202;48.764;9.172;2023-04-24T19:44:25;12.50;42.30
431;DHT22;202;48.764;9.172;2023-04-24T19:47:00;12.40;42.50
431;DHT22;202;48.764;9.172;2023-04-24T19:49:29;12.40;42.60
431;DHT22;202;48.764;9.172;2023-04-24T19:52:01;12.40;42.70
431;DHT22;202;48.764;9.172;2023-04-24T19:54:39;12.40;42.10
431;DHT22;202;48.764;9.172;2023-04-24T19:57:06;12.30;42.10
431;DHT22;202;48.764;9.172;2023-04-24T19:59:33;12.30;41.80
431;DHT22;202;48.764;9.172;2023-04-24T20:02:01;12.30;42.20
431;DHT22;202;48.764;9.172;2023-04-24T20:04:30;11.90;43.00
431;DHT22;202;48.764;9.172;2023-04-24T20:06:57;11.80;43.30
431;DHT22;202;48.764;9.172;2023-04-24T20:09:24;12.00;43.10
431;DHT22;202;48.764;9.172;2023-04-24T20:11:51;12.00;43.00
431;DHT22;202;48.764;9.172;2023-04-24T20:14:19;12.00;43.40
431;DHT22;202;48.764;9.172;2023-04-24T20:16:45;12.00;42.80
431;DHT22;202;48.764;9.172;2023-04-24T20:19:15;12.00;43.30
431;DHT22;202;48.764;9.172;2023-04-24T20:21:43;11.80;43.50
431;DHT22;202;48.764;9.172;2023-04-24T20:24:10;11.90;43.20
431;DHT22;202;48.764;9.172;2023-04-24T20:26:37;11.90;43.10
431;DHT22;202;48.764;9.172;2023-04-24T20:29:09;11.80;43.80
431;DHT22;202;48.764;9.172;2023-04-24T20:31:38;11.80;43.40
431;DHT22;202;48.764;9.172;2023-04-24T20:34:07;11.70;44.00
431;DHT22;202;48.764;9.172;2023-04-24T20:36:44;11.80;44.10
431;DHT22;202;48.764;9.172;2023-04-24T20:39:11;11.70;44.00
431;DHT22;202;48.764;9.172;2023-04-24T20:41:38;11.80;44.40
431;DHT22;202;48.764;9.172;2023-04-24T20:44:06;11.70;45.60
431;DHT22;202;48.764;9.172;2023-04-24T20:46:33;11.70;44.60
431;DHT22;202;48.764;9.172;2023-04-24T20:49:00;11.60;45.10
431;DHT22;202;48.764;9.172;2023-04-24T20:51:28;11.70;45.10
431;DHT22;202;48.764;9.172;2023-04-24T20:53:56;11.60;45.10
431;DHT22;202;48.764;9.172;2023-04-24T20:56:23;11.50;45.00
431;DHT22;202;48.764;9.172;2023-04-24T20:58:50;11.50;45.00
431;DHT22;202;48.764;9.172;2023-04-24T21:01:17;11.60;45.10
431;DHT22;202;48.764;9.172;2023-04-24T21:03:46;11.70;45.20
431;DHT22;202;48.764;9.172;2023-04-24T21:06:13;11.60;45.70
431;DHT22;202;48.764;9.172;2023-04-24T21:08:40;11.60;45.30
431;DHT22;202;48.764;9.172;2023-04-24T21:11:08;11.70;45.40
431;DHT22;202;48.764;9.172;2023-04-24T21:13:35;11.80;45.30
431;DHT22;202;48.764;9.172;2023-04-24T21:16:02;11.80;45.30
431;DHT22;202;48.764;9.172;2023-04-24T21:18:29;11.70;45.20
431;DHT22;202;48.764;9.172;2023-04-24T21:20:56;11.60;45.10
431;DHT22;202;48.764;9.172;2023-04-24T21:23:23;11.70;45.20
431;DHT22;202;48.764;9.172;2023-04-24T21:25:50;11.70;45.20
431;DHT22;202;48.764;9.172;2023-04-24T21:28:19;11.60;45.10
431;DHT22;202;48.764;9.172;2023-04-24T21:30:49;11.70;45.10
431;DHT22;202;48.764;9.172;2023-04-24T21:33:16;11.70;45.20
431;DHT22;202;48.764;9.172;2023-04-24T21:35:43;11.60;45.10
431;DHT22;202;48.764;9.172;2023-04-24T21:38:11;11.50;45.00
431;DHT22;202;48.764;9.172;2023-04-24T21:40:38;11.60;45.10
431;DHT22;202;48.764;9.172;2023-04-24T21:43:04;11.50;45.00
431;DHT22;202;48.764;9.172;2023-04-24T21:45:36;11.40;45.00
431;DHT22;202;48.764;9.172;2023-04-24T21:48:03;11.50;45.00
431;DHT22;202;48.764;9.172;2023-04-24T21:50:30;11.40;45.20
431;DHT22;202;48.764;9.172;2023-04-24T21:53:19;11.50;45.70
431;DHT22;202;48.764;9.172;2023-04-24T21:56:07;11.40;44.90
431;DHT22;202;48.764;9.172;2023-04-24T21:59:26;11.50;45.30
431;DHT22;202;48.764;9.172;2023-04-24T22:02:28;11.50;46.00
431;DHT22;202;48.764;9.172;2023-04-24T22:04:57;11.60;45.60
431;DHT22;202;48.764;9.172;2023-04-24T22:07:28;11.50;45.00
431;DHT22;202;48.764;9.172;2023-04-24T22:10:12;11.60;45.10
431;DHT22;202;48.764;9.172;2023-04-24T22:12:55;11.70;45.10
431;DHT22;202;48.764;9.172;2023-04-24T22:15:23;11.80;45.20